sensor_id;sensor_type;location;lat;lon;timestamp;temperature;humidity
6822;DHT22;3449;48.728;8.968;2022-10-16T00:01:05;14.00;99.90
6822;DHT22;3449;48.728;8.968;2022-10-16T00:03:32;14.00;99.90
6822;DHT22;3449;48.728;8.968;2022-10-16T00:06:00;14.00;99.90
6822;DHT22;3449;48.728;8.968;2022-10-16T00:08:27;14.00;99.90
6822;DHT22;3449;48.728;8.968;2022-10-16T00:10:59;14.00;99.90
6822;DHT22;3449;48.728;8.968;2022-10-16T00:13:28;14.00;99.90
6822;DHT22;3449;48.728;8.968;2022-10-16T00:15:56;14.00;99.90
6822;DHT22;3449;48.728;8.968;2022-10-16T00:18:24;14.00;99.90
6822;DHT22;3449;48.728;8.968;2022-10-16T00:20:51;14.00;99.90
6822;DHT22;3449;48.728;8.968;2022-10-16T00:23:18;13.90;99.90
6822;DHT22;3449;48.728;8.968;2022-10-16T00:25:53;13.90;99.90
6822;DHT22;3449;48.728;8.968;2022-10-16T00:28:20;13.90;99.90
6822;DHT22;3449;48.728;8.968;2022-10-16T00:30:49;13.90;99.90
6822;DHT22;3449;48.728;8.968;2022-10-16T00:33:15;13.90;99.90
6822;DHT22;3449;48.728;8.968;2022-10-16T00:35:42;13.80;99.90
6822;DHT22;3449;48.728;8.968;2022-10-16T00:38:10;13.80;99.90
6822;DHT22;3449;48.728;8.968;2022-10-16T00:40:37;13.80;99.90
6822;DHT22;3449;48.728;8.968;2022-10-16T00:43:12;13.80;99.90
6822;DHT22;3449;48.728;8.968;2022-10-16T00:45:39;13.80;99.90
6822;DHT22;3449;48.728;8.968;2022-10-16T00:48:11;13.80;99.90
6822;DHT22;3449;48.728;8.968;2022-10-16T00:50:39;13.80;99.90
6822;DHT22;3449;48.728;8.968;2022-10-16T00:53:08;13.80;99.90
6822;DHT22;3449;48.728;8.968;2022-10-16T00:55:36;13.80;99.90
6822;DHT22;3449;48.728;8.968;2022-10-16T00:58:03;13.80;99.90
6822;DHT22;3449;48.728;8.968;2022-10-16T01:00:30;13.80;99.90
6822;DHT22;3449;48.728;8.968;2022-10-16T01:02:59;13.80;99.90
6822;DHT22;3449;48.728;8.968;2022-10-16T01:05:33;13.80;99.90
6822;DHT22;3449;48.728;8.968;2022-10-16T01:08:08;13.80;99.90
6822;DHT22;3449;48.728;8.968;2022-10-16T01:10:40;13.80;99.90
6822;DHT22;3449;48.728;8.968;2022-10-16T01:13:09;13.80;99.90
6822;DHT22;3449;48.728;8.968;2022-10-16T01:15:41;13.80;99.90
6822;DHT22;3449;48.728;8.968;2022-10-16T01:18:13;13.80;99.90
6822;DHT22;3449;48.728;8.968;2022-10-16T01:20:47;13.80;99.90
6822;DHT22;3449;48.728;8.968;2022-10-16T01:23:26;13.80;99.90
6822;DHT22;3449;48.728;8.968;2022-10-16T01:26:14;13.80;99.90
6822;DHT22;3449;48.728;8.968;2022-10-16T01:28:47;13.80;99.90
6822;DHT22;3449;48.728;8.968;2022-10-16T01:31:19;13.80;99.90
6822;DHT22;3449;48.728;8.968;2022-10-16T01:36:38;13.80;99.90
6822;DHT22;3449;48.728;8.968;2022-10-16T01:39:09;13.80;99.90
6822;DHT22;3449;48.728;8.968;2022-10-16T01:41:39;13.80;99.90
6822;DHT22;3449;48.728;8.968;2022-10-16T01:44:10;13.80;99.90
6822;DHT22;3449;48.728;8.968;2022-10-16T01:46:42;13.80;99.90
6822;DHT22;3449;48.728;8.968;2022-10-16T01:49:10;13.80;99.90
6822;DHT22;3449;48.728;8.968;2022-10-16T01:51:38;13.80;99.90
6822;DHT22;3449;48.728;8.968;2022-10-16T01:54:08;13.80;99.90
6822;DHT22;3449;48.728;8.968;2022-10-16T01:56:35;13.80;99.90
6822;DHT22;3449;48.728;8.968;2022-10-16T01:59:06;13.80;99.90
6822;DHT22;3449;48.728;8.968;2022-10-16T02:01:38;13.80;99.90
6822;DHT22;3449;48.728;8.968;2022-10-16T02:04:09;13.80;99.90
6822;DHT22;3449;48.728;8.968;2022-10-16T02:06:38;13.80;99.90
6822;DHT22;3449;48.728;8.968;2022-10-16T02:09:05;13.70;99.90
6822;DHT22;3449;48.728;8.968;2022-10-16T02:11:32;13.80;99.90
6822;DHT22;3449;48.728;8.968;2022-10-16T02:14:02;13.80;99.90
6822;DHT22;3449;48.728;8.968;2022-10-16T02:16:36;13.80;99.90
6822;DHT22;3449;48.728;8.968;2022-10-16T02:19:05;13.80;99.90
6822;DHT22;3449;48.728;8.968;2022-10-16T02:21:38;13.80;99.90
6822;DHT22;3449;48.728;8.968;2022-10-16T02:24:11;13.80;99.90
6822;DHT22;3449;48.728;8.968;2022-10-16T02:26:43;13.80;99.90
6822;DHT22;3449;48.728;8.968;2022-10-16T02:29:14;13.80;99.90
6822;DHT22;3449;48.728;8.968;2022-10-16T02:31:47;13.80;99.90
6822;DHT22;3449;48.728;8.968;2022-10-16T02:34:17;13.80;99.90
6822;DHT22;3449;48.728;8.968;2022-10-16T02:36:45;13.80;99.90
6822;DHT22;3449;48.728;8.968;2022-10-16T02:39:14;13.80;99.90
6822;DHT22;3449;48.728;8.968;2022-10-16T02:41:41;13.80;99.90
6822;DHT22;3449;48.728;8.968;2022-10-16T02:44:09;13.80;99.90
6822;DHT22;3449;48.728;8.968;2022-10-16T02:46:35;13.80;99.90
6822;DHT22;3449;48.728;8.968;2022-10-16T02:49:04;13.80;99.90
6822;DHT22;3449;48.728;8.968;2022-10-16T02:51:31;13.80;99.90
6822;DHT22;3449;48.728;8.968;2022-10-16T02:53:58;13.80;99.90
6822;DHT22;3449;48.728;8.968;2022-10-16T02:56:24;13.70;99.90
6822;DHT22;3449;48.728;8.968;2022-10-16T02:58:51;13.70;99.90
6822;DHT22;3449;48.728;8.968;2022-10-16T03:01:18;13.70;99.90
6822;DHT22;3449;48.728;8.968;2022-10-16T03:03:45;13.70;99.90
6822;DHT22;3449;48.728;8.968;2022-10-16T03:06:13;13.70;99.90
6822;DHT22;3449;48.728;8.968;2022-10-16T03:08:40;13.70;99.90
6822;DHT22;3449;48.728;8.968;2022-10-16T03:11:07;13.70;99.90
6822;DHT22;3449;48.728;8.968;2022-10-16T03:13:34;13.70;99.90
6822;DHT22;3449;48.728;8.968;2022-10-16T03:16:01;13.70;99.90
6822;DHT22;3449;48.728;8.968;2022-10-16T03:18:28;13.70;99.90
6822;DHT22;3449;48.728;8.968;2022-10-16T03:20:54;13.70;99.90
6822;DHT22;3449;48.728;8.968;2022-10-16T03:23:23;13.80;99.90
6822;DHT22;3449;48.728;8.968;2022-10-16T03:25:50;13.70;99.90
6822;DHT22;3449;48.728;8.968;2022-10-16T03:28:16;13.80;99.90
6822;DHT22;3449;48.728;8.968;2022-10-16T03:30:44;13.70;99.90
6822;DHT22;3449;48.728;8.968;2022-10-16T03:33:11;13.80;99.90
6822;DHT22;3449;48.728;8.968;2022-10-16T03:35:38;13.80;99.90
6822;DHT22;3449;48.728;8.968;2022-10-16T03:38:05;13.80;99.90
6822;DHT22;3449;48.728;8.968;2022-10-16T03:40:33;13.80;99.90
6822;DHT22;3449;48.728;8.968;2022-10-16T03:43:00;13.70;99.90
6822;DHT22;3449;48.728;8.968;2022-10-16T03:45:26;13.80;99.90
6822;DHT22;3449;48.728;8.968;2022-10-16T03:47:53;13.80;99.90
6822;DHT22;3449;48.728;8.968;2022-10-16T03:50:20;13.70;99.90
6822;DHT22;3449;48.728;8.968;2022-10-16T03:52:47;13.70;99.90
6822;DHT22;3449;48.728;8.968;2022-10-16T03:55:14;13.80;99.90
6822;DHT22;3449;48.728;8.968;2022-10-16T03:57:43;13.70;99.90
6822;DHT22;3449;48.728;8.968;2022-10-16T04:00:11;13.70;99.90
6822;DHT22;3449;48.728;8.968;2022-10-16T04:02:38;13.70;99.90
6822;DHT22;3449;48.728;8.968;2022-10-16T04:05:05;13.70;99.90
6822;DHT22;3449;48.728;8.968;2022-10-16T04:07:32;13.70;99.90
6822;DHT22;3449;48.728;8.968;2022-10-16T04:09:59;13.70;99.90
6822;DHT22;3449;48.728;8.968;2022-10-16T04:12:26;13.80;99.90
6822;DHT22;3449;48.728;8.968;2022-10-16T04:14:54;13.80;99.90
6822;DHT22;3449;48.728;8.968;2022-10-16T04:17:21;13.80;99.90
6822;DHT22;3449;48.728;8.968;2022-10-16T04:19:48;13.80;99.90
6822;DHT22;3449;48.728;8.968;2022-10-16T04:22:15;13.80;99.90
6822;DHT22;3449;48.728;8.968;2022-10-16T04:24:42;13.80;99.90
6822;DHT22;3449;48.728;8.968;2022-10-16T04:27:09;13.80;99.90
6822;DHT22;3449;48.728;8.968;2022-10-16T04:29:36;13.80;99.90
6822;DHT22;3449;48.728;8.968;2022-10-16T04:32:04;13.80;99.90
6822;DHT22;3449;48.728;8.968;2022-10-16T04:34:31;13.70;99.90
6822;DHT22;3449;48.728;8.968;2022-10-16T04:36:57;13.70;99.90
6822;DHT22;3449;48.728;8.968;2022-10-16T04:39:24;13.70;99.90
6822;DHT22;3449;48.728;8.968;2022-10-16T04:41:51;13.70;99.90
6822;DHT22;3449;48.728;8.968;2022-10-16T04:44:18;13.60;99.90
6822;DHT22;3449;48.728;8.968;2022-10-16T04:46:45;13.70;99.90
6822;DHT22;3449;48.728;8.968;2022-10-16T04:49:13;13.70;99.90
6822;DHT22;3449;48.728;8.968;2022-10-16T04:51:40;13.70;99.90
6822;DHT22;3449;48.728;8.968;2022-10-16T04:54:08;13.70;99.90
6822;DHT22;3449;48.728;8.968;2022-10-16T04:56:35;13.70;99.90
6822;DHT22;3449;48.728;8.968;2022-10-16T04:59:08;13.70;99.90
6822;DHT22;3449;48.728;8.968;2022-10-16T05:01:35;13.70;99.90
6822;DHT22;3449;48.728;8.968;2022-10-16T05:04:02;13.70;99.90
6822;DHT22;3449;48.728;8.968;2022-10-16T05:06:31;13.70;99.90
6822;DHT22;3449;48.728;8.968;2022-10-16T05:08:58;13.70;99.90
6822;DHT22;3449;48.728;8.968;2022-10-16T05:11:25;13.70;99.90
6822;DHT22;3449;48.728;8.968;2022-10-16T05:13:51;13.70;99.90
6822;DHT22;3449;48.728;8.968;2022-10-16T05:16:18;13.60;99.90
6822;DHT22;3449;48.728;8.968;2022-10-16T05:18:45;13.60;99.90
6822;DHT22;3449;48.728;8.968;2022-10-16T05:21:12;13.60;99.90
6822;DHT22;3449;48.728;8.968;2022-10-16T05:23:40;13.60;99.90
6822;DHT22;3449;48.728;8.968;2022-10-16T05:26:08;13.60;99.90
6822;DHT22;3449;48.728;8.968;2022-10-16T05:28:35;13.50;99.90
6822;DHT22;3449;48.728;8.968;2022-10-16T05:31:04;13.50;99.90
6822;DHT22;3449;48.728;8.968;2022-10-16T05:33:32;13.50;99.90
6822;DHT22;3449;48.728;8.968;2022-10-16T05:36:01;13.50;99.90
6822;DHT22;3449;48.728;8.968;2022-10-16T05:38:28;13.40;99.90
6822;DHT22;3449;48.728;8.968;2022-10-16T05:40:57;13.40;99.90
6822;DHT22;3449;48.728;8.968;2022-10-16T05:43:23;13.40;99.90
6822;DHT22;3449;48.728;8.968;2022-10-16T05:45:54;13.40;99.90
6822;DHT22;3449;48.728;8.968;2022-10-16T05:48:21;13.50;99.90
6822;DHT22;3449;48.728;8.968;2022-10-16T05:50:55;13.40;99.90
6822;DHT22;3449;48.728;8.968;2022-10-16T05:53:22;13.40;99.90
6822;DHT22;3449;48.728;8.968;2022-10-16T05:55:52;13.40;99.90
6822;DHT22;3449;48.728;8.968;2022-10-16T05:58:21;13.40;99.90
6822;DHT22;3449;48.728;8.968;2022-10-16T06:00:53;13.40;99.90
6822;DHT22;3449;48.728;8.968;2022-10-16T06:03:20;13.50;99.90
6822;DHT22;3449;48.728;8.968;2022-10-16T06:05:47;13.50;99.90
6822;DHT22;3449;48.728;8.968;2022-10-16T06:08:14;13.50;99.90
6822;DHT22;3449;48.728;8.968;2022-10-16T06:10:47;13.50;99.90
6822;DHT22;3449;48.728;8.968;2022-10-16T06:13:15;13.50;99.90
6822;DHT22;3449;48.728;8.968;2022-10-16T06:15:52;13.50;99.90
6822;DHT22;3449;48.728;8.968;2022-10-16T06:18:19;13.50;99.90
6822;DHT22;3449;48.728;8.968;2022-10-16T06:20:46;13.60;99.90
6822;DHT22;3449;48.728;8.968;2022-10-16T06:23:13;13.60;99.90
6822;DHT22;3449;48.728;8.968;2022-10-16T06:25:40;13.60;99.90
6822;DHT22;3449;48.728;8.968;2022-10-16T06:28:06;13.60;99.90
6822;DHT22;3449;48.728;8.968;2022-10-16T06:30:33;13.70;99.90
6822;DHT22;3449;48.728;8.968;2022-10-16T06:33:02;13.60;99.90
6822;DHT22;3449;48.728;8.968;2022-10-16T06:35:29;13.70;99.90
6822;DHT22;3449;48.728;8.968;2022-10-16T06:37:57;13.70;99.90
6822;DHT22;3449;48.728;8.968;2022-10-16T06:40:24;13.80;99.90
6822;DHT22;3449;48.728;8.968;2022-10-16T06:42:51;13.90;99.90
6822;DHT22;3449;48.728;8.968;2022-10-16T06:45:18;14.00;99.90
6822;DHT22;3449;48.728;8.968;2022-10-16T06:47:45;14.00;99.90
6822;DHT22;3449;48.728;8.968;2022-10-16T06:50:13;14.00;99.90
6822;DHT22;3449;48.728;8.968;2022-10-16T06:52:40;14.00;99.90
6822;DHT22;3449;48.728;8.968;2022-10-16T06:55:07;14.10;99.90
6822;DHT22;3449;48.728;8.968;2022-10-16T06:57:34;14.10;99.90
6822;DHT22;3449;48.728;8.968;2022-10-16T07:00:01;14.10;99.90
6822;DHT22;3449;48.728;8.968;2022-10-16T07:02:28;14.20;99.90
6822;DHT22;3449;48.728;8.968;2022-10-16T07:04:55;14.20;99.90
6822;DHT22;3449;48.728;8.968;2022-10-16T07:07:23;14.30;99.90
6822;DHT22;3449;48.728;8.968;2022-10-16T07:09:52;14.30;99.90
6822;DHT22;3449;48.728;8.968;2022-10-16T07:12:19;14.40;99.90
6822;DHT22;3449;48.728;8.968;2022-10-16T07:14:45;14.40;99.90
6822;DHT22;3449;48.728;8.968;2022-10-16T07:17:12;14.40;99.90
6822;DHT22;3449;48.728;8.968;2022-10-16T07:19:39;14.40;99.90
6822;DHT22;3449;48.728;8.968;2022-10-16T07:22:06;14.50;99.90
6822;DHT22;3449;48.728;8.968;2022-10-16T07:24:34;14.50;99.90
6822;DHT22;3449;48.728;8.968;2022-10-16T07:27:01;14.50;99.90
6822;DHT22;3449;48.728;8.968;2022-10-16T07:29:28;14.50;99.90
6822;DHT22;3449;48.728;8.968;2022-10-16T07:31:55;14.50;99.90
6822;DHT22;3449;48.728;8.968;2022-10-16T07:34:22;14.60;99.90
6822;DHT22;3449;48.728;8.968;2022-10-16T07:36:49;14.60;99.90
6822;DHT22;3449;48.728;8.968;2022-10-16T07:39:16;14.70;99.90
6822;DHT22;3449;48.728;8.968;2022-10-16T07:41:44;14.80;99.90
6822;DHT22;3449;48.728;8.968;2022-10-16T07:44:11;14.80;99.90
6822;DHT22;3449;48.728;8.968;2022-10-16T07:46:38;14.80;99.90
6822;DHT22;3449;48.728;8.968;2022-10-16T07:49:05;14.90;99.90
6822;DHT22;3449;48.728;8.968;2022-10-16T07:51:32;14.90;99.90
6822;DHT22;3449;48.728;8.968;2022-10-16T07:53:59;15.00;99.90
6822;DHT22;3449;48.728;8.968;2022-10-16T07:56:26;15.00;99.90
6822;DHT22;3449;48.728;8.968;2022-10-16T07:58:54;15.10;99.90
6822;DHT22;3449;48.728;8.968;2022-10-16T08:01:22;15.20;99.90
6822;DHT22;3449;48.728;8.968;2022-10-16T08:03:52;15.30;99.90
6822;DHT22;3449;48.728;8.968;2022-10-16T08:06:20;15.40;99.90
6822;DHT22;3449;48.728;8.968;2022-10-16T08:08:47;15.50;99.90
6822;DHT22;3449;48.728;8.968;2022-10-16T08:11:14;15.60;99.90
6822;DHT22;3449;48.728;8.968;2022-10-16T08:13:41;15.70;99.90
6822;DHT22;3449;48.728;8.968;2022-10-16T08:16:09;15.90;99.90
6822;DHT22;3449;48.728;8.968;2022-10-16T08:18:38;16.00;99.90
6822;DHT22;3449;48.728;8.968;2022-10-16T08:21:06;16.00;99.90
6822;DHT22;3449;48.728;8.968;2022-10-16T08:23:34;16.10;99.90
6822;DHT22;3449;48.728;8.968;2022-10-16T08:26:03;16.10;99.90
6822;DHT22;3449;48.728;8.968;2022-10-16T08:28:31;16.20;99.90
6822;DHT22;3449;48.728;8.968;2022-10-16T08:31:05;16.30;99.90
6822;DHT22;3449;48.728;8.968;2022-10-16T08:33:34;16.30;99.90
6822;DHT22;3449;48.728;8.968;2022-10-16T08:36:02;16.30;99.90
6822;DHT22;3449;48.728;8.968;2022-10-16T08:38:29;16.30;99.90
6822;DHT22;3449;48.728;8.968;2022-10-16T08:41:01;16.30;99.90
6822;DHT22;3449;48.728;8.968;2022-10-16T08:43:41;16.40;99.90
6822;DHT22;3449;48.728;8.968;2022-10-16T08:46:26;16.30;99.90
6822;DHT22;3449;48.728;8.968;2022-10-16T08:49:02;16.30;99.90
6822;DHT22;3449;48.728;8.968;2022-10-16T08:51:31;16.30;99.90
6822;DHT22;3449;48.728;8.968;2022-10-16T08:54:02;16.40;99.90
6822;DHT22;3449;48.728;8.968;2022-10-16T08:56:29;16.50;99.90
6822;DHT22;3449;48.728;8.968;2022-10-16T08:58:58;16.50;99.90
6822;DHT22;3449;48.728;8.968;2022-10-16T09:01:35;16.60;99.90
6822;DHT22;3449;48.728;8.968;2022-10-16T09:04:22;16.70;99.90
6822;DHT22;3449;48.728;8.968;2022-10-16T09:06:55;16.90;99.90
6822;DHT22;3449;48.728;8.968;2022-10-16T09:09:33;17.10;99.90
6822;DHT22;3449;48.728;8.968;2022-10-16T09:12:13;17.30;99.90
6822;DHT22;3449;48.728;8.968;2022-10-16T09:14:52;17.50;99.90
6822;DHT22;3449;48.728;8.968;2022-10-16T09:17:42;17.90;99.90
6822;DHT22;3449;48.728;8.968;2022-10-16T09:20:28;18.30;99.90
6822;DHT22;3449;48.728;8.968;2022-10-16T09:23:08;18.60;99.90
6822;DHT22;3449;48.728;8.968;2022-10-16T09:25:39;18.70;99.90
6822;DHT22;3449;48.728;8.968;2022-10-16T09:28:08;19.10;99.90
6822;DHT22;3449;48.728;8.968;2022-10-16T09:30:37;19.00;99.90
6822;DHT22;3449;48.728;8.968;2022-10-16T09:33:05;18.80;99.90
6822;DHT22;3449;48.728;8.968;2022-10-16T09:35:37;18.50;99.90
6822;DHT22;3449;48.728;8.968;2022-10-16T09:38:05;18.30;99.90
6822;DHT22;3449;48.728;8.968;2022-10-16T09:40:34;18.10;99.90
6822;DHT22;3449;48.728;8.968;2022-10-16T09:43:07;18.10;99.90
6822;DHT22;3449;48.728;8.968;2022-10-16T09:45:42;18.20;99.90
6822;DHT22;3449;48.728;8.968;2022-10-16T09:48:12;18.20;99.90
6822;DHT22;3449;48.728;8.968;2022-10-16T09:50:40;18.40;99.90
6822;DHT22;3449;48.728;8.968;2022-10-16T09:53:11;18.60;99.90
6822;DHT22;3449;48.728;8.968;2022-10-16T09:55:48;18.80;99.90
6822;DHT22;3449;48.728;8.968;2022-10-16T09:58:16;18.80;99.90
6822;DHT22;3449;48.728;8.968;2022-10-16T10:00:49;18.80;99.90
6822;DHT22;3449;48.728;8.968;2022-10-16T10:03:30;18.80;99.90
6822;DHT22;3449;48.728;8.968;2022-10-16T10:06:06;18.90;99.90
6822;DHT22;3449;48.728;8.968;2022-10-16T10:08:33;19.00;99.90
6822;DHT22;3449;48.728;8.968;2022-10-16T10:11:00;19.10;99.90
6822;DHT22;3449;48.728;8.968;2022-10-16T10:13:27;19.20;99.90
6822;DHT22;3449;48.728;8.968;2022-10-16T10:15:54;19.30;99.90
6822;DHT22;3449;48.728;8.968;2022-10-16T10:18:23;19.50;99.90
6822;DHT22;3449;48.728;8.968;2022-10-16T10:21:04;19.60;99.90
6822;DHT22;3449;48.728;8.968;2022-10-16T10:23:33;19.60;99.90
6822;DHT22;3449;48.728;8.968;2022-10-16T10:26:05;19.70;99.90
6822;DHT22;3449;48.728;8.968;2022-10-16T10:28:51;19.80;99.90
6822;DHT22;3449;48.728;8.968;2022-10-16T10:31:28;19.90;99.90
6822;DHT22;3449;48.728;8.968;2022-10-16T10:34:01;20.10;99.90
6822;DHT22;3449;48.728;8.968;2022-10-16T10:36:39;20.20;99.90
6822;DHT22;3449;48.728;8.968;2022-10-16T10:39:12;20.40;99.90
6822;DHT22;3449;48.728;8.968;2022-10-16T10:42:05;20.50;99.90
6822;DHT22;3449;48.728;8.968;2022-10-16T10:44:46;21.10;99.90
6822;DHT22;3449;48.728;8.968;2022-10-16T10:47:23;21.70;99.90
6822;DHT22;3449;48.728;8.968;2022-10-16T10:50:04;22.10;99.90
6822;DHT22;3449;48.728;8.968;2022-10-16T10:52:53;22.30;99.90
6822;DHT22;3449;48.728;8.968;2022-10-16T10:55:33;22.30;99.90
6822;DHT22;3449;48.728;8.968;2022-10-16T10:58:42;21.90;99.90
6822;DHT22;3449;48.728;8.968;2022-10-16T11:01:13;22.00;99.90
6822;DHT22;3449;48.728;8.968;2022-10-16T11:04:02;21.90;99.90
6822;DHT22;3449;48.728;8.968;2022-10-16T11:06:35;21.90;99.90
6822;DHT22;3449;48.728;8.968;2022-10-16T11:09:12;21.90;99.90
6822;DHT22;3449;48.728;8.968;2022-10-16T11:11:44;21.60;99.90
6822;DHT22;3449;48.728;8.968;2022-10-16T11:14:16;21.70;99.90
6822;DHT22;3449;48.728;8.968;2022-10-16T11:16:51;21.50;99.90
6822;DHT22;3449;48.728;8.968;2022-10-16T11:19:29;21.30;99.90
6822;DHT22;3449;48.728;8.968;2022-10-16T11:22:03;21.40;99.90
6822;DHT22;3449;48.728;8.968;2022-10-16T11:24:39;21.50;99.90
6822;DHT22;3449;48.728;8.968;2022-10-16T11:27:10;21.70;99.90
6822;DHT22;3449;48.728;8.968;2022-10-16T11:29:45;22.20;99.90
6822;DHT22;3449;48.728;8.968;2022-10-16T11:32:21;22.60;99.90
6822;DHT22;3449;48.728;8.968;2022-10-16T11:34:52;23.20;99.90
6822;DHT22;3449;48.728;8.968;2022-10-16T11:37:24;23.60;99.90
6822;DHT22;3449;48.728;8.968;2022-10-16T11:39:58;24.00;99.90
6822;DHT22;3449;48.728;8.968;2022-10-16T11:42:33;24.50;99.90
6822;DHT22;3449;48.728;8.968;2022-10-16T11:45:10;24.70;99.90
6822;DHT22;3449;48.728;8.968;2022-10-16T11:47:45;25.10;99.90
6822;DHT22;3449;48.728;8.968;2022-10-16T11:50:19;25.30;99.90
6822;DHT22;3449;48.728;8.968;2022-10-16T11:52:51;25.70;99.90
6822;DHT22;3449;48.728;8.968;2022-10-16T11:55:24;26.20;99.90
6822;DHT22;3449;48.728;8.968;2022-10-16T11:57:59;25.80;99.90
6822;DHT22;3449;48.728;8.968;2022-10-16T12:00:31;25.80;99.90
6822;DHT22;3449;48.728;8.968;2022-10-16T12:03:08;26.20;99.90
6822;DHT22;3449;48.728;8.968;2022-10-16T12:05:55;26.70;99.90
6822;DHT22;3449;48.728;8.968;2022-10-16T12:08:24;26.80;99.90
6822;DHT22;3449;48.728;8.968;2022-10-16T12:10:53;26.80;99.90
6822;DHT22;3449;48.728;8.968;2022-10-16T12:13:34;26.80;99.90
6822;DHT22;3449;48.728;8.968;2022-10-16T12:16:22;26.80;99.90
6822;DHT22;3449;48.728;8.968;2022-10-16T12:18:49;26.70;99.90
6822;DHT22;3449;48.728;8.968;2022-10-16T12:21:30;26.90;99.90
6822;DHT22;3449;48.728;8.968;2022-10-16T12:23:58;27.20;99.90
6822;DHT22;3449;48.728;8.968;2022-10-16T12:26:29;27.50;99.90
6822;DHT22;3449;48.728;8.968;2022-10-16T12:29:14;27.40;99.90
6822;DHT22;3449;48.728;8.968;2022-10-16T12:31:47;27.10;99.90
6822;DHT22;3449;48.728;8.968;2022-10-16T12:34:21;27.00;99.90
6822;DHT22;3449;48.728;8.968;2022-10-16T12:36:50;26.50;99.90
6822;DHT22;3449;48.728;8.968;2022-10-16T12:39:21;25.60;99.90
6822;DHT22;3449;48.728;8.968;2022-10-16T12:42:00;24.80;99.90
6822;DHT22;3449;48.728;8.968;2022-10-16T12:44:32;24.40;99.90
6822;DHT22;3449;48.728;8.968;2022-10-16T12:46:59;24.10;99.90
6822;DHT22;3449;48.728;8.968;2022-10-16T12:49:34;23.90;99.90
6822;DHT22;3449;48.728;8.968;2022-10-16T12:52:35;23.70;99.90
6822;DHT22;3449;48.728;8.968;2022-10-16T12:55:05;23.50;99.90
6822;DHT22;3449;48.728;8.968;2022-10-16T12:58:02;23.40;99.90
6822;DHT22;3449;48.728;8.968;2022-10-16T13:00:45;23.40;99.90
6822;DHT22;3449;48.728;8.968;2022-10-16T13:03:53;23.30;99.90
6822;DHT22;3449;48.728;8.968;2022-10-16T13:06:35;23.30;99.90
6822;DHT22;3449;48.728;8.968;2022-10-16T13:12:29;23.10;99.90
6822;DHT22;3449;48.728;8.968;2022-10-16T13:18:07;23.10;99.90
6822;DHT22;3449;48.728;8.968;2022-10-16T13:23:29;23.30;99.90
6822;DHT22;3449;48.728;8.968;2022-10-16T13:26:10;23.50;99.90
6822;DHT22;3449;48.728;8.968;2022-10-16T13:28:48;23.60;99.90
6822;DHT22;3449;48.728;8.968;2022-10-16T13:31:31;23.60;99.90
6822;DHT22;3449;48.728;8.968;2022-10-16T13:34:01;23.70;99.90
6822;DHT22;3449;48.728;8.968;2022-10-16T13:36:33;23.70;99.90
6822;DHT22;3449;48.728;8.968;2022-10-16T13:39:09;23.90;99.90
6822;DHT22;3449;48.728;8.968;2022-10-16T13:41:36;23.90;99.90
6822;DHT22;3449;48.728;8.968;2022-10-16T13:44:03;23.80;99.90
6822;DHT22;3449;48.728;8.968;2022-10-16T13:46:30;23.70;99.90
6822;DHT22;3449;48.728;8.968;2022-10-16T13:49:02;23.70;99.90
6822;DHT22;3449;48.728;8.968;2022-10-16T13:51:30;23.70;99.90
6822;DHT22;3449;48.728;8.968;2022-10-16T13:53:58;23.60;99.90
6822;DHT22;3449;48.728;8.968;2022-10-16T13:56:27;23.50;99.90
6822;DHT22;3449;48.728;8.968;2022-10-16T13:59:01;23.40;99.90
6822;DHT22;3449;48.728;8.968;2022-10-16T14:01:32;23.30;99.90
6822;DHT22;3449;48.728;8.968;2022-10-16T14:04:18;23.30;99.90
6822;DHT22;3449;48.728;8.968;2022-10-16T14:06:46;23.10;99.90
6822;DHT22;3449;48.728;8.968;2022-10-16T14:09:21;23.00;99.90
6822;DHT22;3449;48.728;8.968;2022-10-16T14:11:51;23.00;99.90
6822;DHT22;3449;48.728;8.968;2022-10-16T14:14:20;22.90;99.90
6822;DHT22;3449;48.728;8.968;2022-10-16T14:16:47;22.90;99.90
6822;DHT22;3449;48.728;8.968;2022-10-16T14:19:20;22.80;99.90
6822;DHT22;3449;48.728;8.968;2022-10-16T14:21:49;22.90;99.90
6822;DHT22;3449;48.728;8.968;2022-10-16T14:24:25;22.90;99.90
6822;DHT22;3449;48.728;8.968;2022-10-16T14:26:53;23.00;99.90
6822;DHT22;3449;48.728;8.968;2022-10-16T14:29:22;23.10;99.90
6822;DHT22;3449;48.728;8.968;2022-10-16T14:31:57;23.00;99.90
6822;DHT22;3449;48.728;8.968;2022-10-16T14:34:31;23.00;99.90
6822;DHT22;3449;48.728;8.968;2022-10-16T14:37:00;23.00;99.90
6822;DHT22;3449;48.728;8.968;2022-10-16T14:39:32;23.00;99.90
6822;DHT22;3449;48.728;8.968;2022-10-16T14:41:59;23.00;99.90
6822;DHT22;3449;48.728;8.968;2022-10-16T14:44:29;23.00;99.90
6822;DHT22;3449;48.728;8.968;2022-10-16T14:46:58;22.90;99.90
6822;DHT22;3449;48.728;8.968;2022-10-16T14:49:26;22.90;99.90
6822;DHT22;3449;48.728;8.968;2022-10-16T14:51:55;22.90;99.90
6822;DHT22;3449;48.728;8.968;2022-10-16T14:54:37;22.70;99.90
6822;DHT22;3449;48.728;8.968;2022-10-16T14:57:17;22.60;99.90
6822;DHT22;3449;48.728;8.968;2022-10-16T14:59:45;22.60;99.90
6822;DHT22;3449;48.728;8.968;2022-10-16T15:02:18;22.40;99.90
6822;DHT22;3449;48.728;8.968;2022-10-16T15:04:48;22.30;99.90
6822;DHT22;3449;48.728;8.968;2022-10-16T15:07:16;22.20;99.90
6822;DHT22;3449;48.728;8.968;2022-10-16T15:09:43;22.20;99.90
6822;DHT22;3449;48.728;8.968;2022-10-16T15:12:10;22.10;99.90
6822;DHT22;3449;48.728;8.968;2022-10-16T15:14:37;22.10;99.90
6822;DHT22;3449;48.728;8.968;2022-10-16T15:17:04;22.00;99.90
6822;DHT22;3449;48.728;8.968;2022-10-16T15:19:31;21.90;99.90
6822;DHT22;3449;48.728;8.968;2022-10-16T15:21:57;21.90;99.90
6822;DHT22;3449;48.728;8.968;2022-10-16T15:24:26;21.80;99.90
6822;DHT22;3449;48.728;8.968;2022-10-16T15:26:53;21.80;99.90
6822;DHT22;3449;48.728;8.968;2022-10-16T15:29:20;21.70;99.90
6822;DHT22;3449;48.728;8.968;2022-10-16T15:31:47;21.70;99.90
6822;DHT22;3449;48.728;8.968;2022-10-16T15:34:13;21.60;99.90
6822;DHT22;3449;48.728;8.968;2022-10-16T15:36:40;21.60;99.90
6822;DHT22;3449;48.728;8.968;2022-10-16T15:39:13;21.50;99.90
6822;DHT22;3449;48.728;8.968;2022-10-16T15:41:41;21.40;99.90
6822;DHT22;3449;48.728;8.968;2022-10-16T15:44:09;21.40;99.90
6822;DHT22;3449;48.728;8.968;2022-10-16T15:46:36;21.30;99.90
6822;DHT22;3449;48.728;8.968;2022-10-16T15:49:03;21.20;99.90
6822;DHT22;3449;48.728;8.968;2022-10-16T15:51:30;21.10;99.90
6822;DHT22;3449;48.728;8.968;2022-10-16T15:53:58;21.10;99.90
6822;DHT22;3449;48.728;8.968;2022-10-16T15:56:27;21.00;99.90
6822;DHT22;3449;48.728;8.968;2022-10-16T15:58:55;20.90;99.90
6822;DHT22;3449;48.728;8.968;2022-10-16T16:01:23;20.80;99.90
6822;DHT22;3449;48.728;8.968;2022-10-16T16:03:53;20.70;99.90
6822;DHT22;3449;48.728;8.968;2022-10-16T16:06:20;20.70;99.90
6822;DHT22;3449;48.728;8.968;2022-10-16T16:08:47;20.60;99.90
6822;DHT22;3449;48.728;8.968;2022-10-16T16:11:16;20.50;99.90
6822;DHT22;3449;48.728;8.968;2022-10-16T16:13:43;20.40;99.90
6822;DHT22;3449;48.728;8.968;2022-10-16T16:16:15;20.30;99.90
6822;DHT22;3449;48.728;8.968;2022-10-16T16:18:43;20.20;99.90
6822;DHT22;3449;48.728;8.968;2022-10-16T16:21:10;20.10;99.90
6822;DHT22;3449;48.728;8.968;2022-10-16T16:23:37;20.00;99.90
6822;DHT22;3449;48.728;8.968;2022-10-16T16:26:10;19.90;99.90
6822;DHT22;3449;48.728;8.968;2022-10-16T16:28:38;19.70;99.90
6822;DHT22;3449;48.728;8.968;2022-10-16T16:31:05;19.70;99.90
6822;DHT22;3449;48.728;8.968;2022-10-16T16:33:34;19.60;99.90
6822;DHT22;3449;48.728;8.968;2022-10-16T16:36:02;19.50;99.90